< < Back
Terminal Aerodrome Forecast


Current Version              Previous Versions:   1  2  3  4  5  6  7  8  9  

Terminal Aerodrome Forecast

834
FTUS42 KTAE 300500
TAFTLH
TAF
KTLH 300520Z 3006/3106 33004KT P6SM FEW060 SCT250=



Latest METAR

178
SAUS80 KWBC 302100
MTRTLH
METAR KTLH 302053Z 27006KT 10SM BKN060 35/21 A2996 RMK AO2 SLPNO 6////
T03460214 PNO


USA.gov is the U.S. government's official web portal to all federal, state and local government web resources and services.